sensor_id;sensor_type;location;lat;lon;timestamp;P1;durP1;ratioP1;P2;durP2;ratioP2
3613;SDS011;1821;50.936;6.854;2022-09-21T00:00:05;5.60;;;3.80;;
3613;SDS011;1821;50.936;6.854;2022-09-21T00:00:47;6.20;;;4.10;;
3613;SDS011;1821;50.936;6.854;2022-09-21T00:01:29;5.35;;;3.83;;
3613;SDS011;1821;50.936;6.854;2022-09-21T00:02:12;7.50;;;4.10;;
3613;SDS011;1821;50.936;6.854;2022-09-21T00:02:54;6.15;;;3.88;;
3613;SDS011;1821;50.936;6.854;2022-09-21T00:03:37;7.45;;;3.80;;
3613;SDS011;1821;50.936;6.854;2022-09-21T00:04:21;7.13;;;4.10;;
3613;SDS011;1821;50.936;6.854;2022-09-21T00:05:03;6.68;;;4.03;;
3613;SDS011;1821;50.936;6.854;2022-09-21T00:05:46;6.80;;;4.25;;
3613;SDS011;1821;50.936;6.854;2022-09-21T00:06:29;6.95;;;3.70;;
3613;SDS011;1821;50.936;6.854;2022-09-21T00:07:12;7.40;;;3.97;;
3613;SDS011;1821;50.936;6.854;2022-09-21T00:07:54;9.02;;;4.20;;
3613;SDS011;1821;50.936;6.854;2022-09-21T00:08:36;7.05;;;3.30;;
3613;SDS011;1821;50.936;6.854;2022-09-21T00:09:17;5.13;;;3.60;;
3613;SDS011;1821;50.936;6.854;2022-09-21T00:09:59;5.97;;;4.28;;
3613;SDS011;1821;50.936;6.854;2022-09-21T00:10:41;6.53;;;4.03;;
3613;SDS011;1821;50.936;6.854;2022-09-21T00:11:24;5.38;;;4.00;;
3613;SDS011;1821;50.936;6.854;2022-09-21T00:12:08;5.82;;;3.70;;
3613;SDS011;1821;50.936;6.854;2022-09-21T00:12:49;6.53;;;3.75;;
3613;SDS011;1821;50.936;6.854;2022-09-21T00:13:31;5.97;;;4.05;;
3613;SDS011;1821;50.936;6.854;2022-09-21T00:14:14;5.15;;;3.78;;
3613;SDS011;1821;50.936;6.854;2022-09-21T00:14:56;6.53;;;3.60;;
3613;SDS011;1821;50.936;6.854;2022-09-21T00:15:38;6.43;;;3.78;;
3613;SDS011;1821;50.936;6.854;2022-09-21T00:16:21;6.65;;;3.78;;
3613;SDS011;1821;50.936;6.854;2022-09-21T00:17:03;8.38;;;4.10;;
3613;SDS011;1821;50.936;6.854;2022-09-21T00:17:45;8.88;;;4.05;;
3613;SDS011;1821;50.936;6.854;2022-09-21T00:18:30;8.52;;;4.18;;
3613;SDS011;1821;50.936;6.854;2022-09-21T00:19:12;8.32;;;3.90;;
3613;SDS011;1821;50.936;6.854;2022-09-21T00:19:54;7.65;;;3.67;;
3613;SDS011;1821;50.936;6.854;2022-09-21T00:20:35;5.88;;;3.30;;
3613;SDS011;1821;50.936;6.854;2022-09-21T00:21:20;6.90;;;3.40;;
3613;SDS011;1821;50.936;6.854;2022-09-21T00:22:02;5.57;;;3.40;;
3613;SDS011;1821;50.936;6.854;2022-09-21T00:22:44;5.30;;;3.80;;
3613;SDS011;1821;50.936;6.854;2022-09-21T00:23:26;7.10;;;3.80;;
3613;SDS011;1821;50.936;6.854;2022-09-21T00:24:09;6.10;;;3.90;;
3613;SDS011;1821;50.936;6.854;2022-09-21T00:24:52;7.45;;;3.80;;
3613;SDS011;1821;50.936;6.854;2022-09-21T00:25:33;6.22;;;3.88;;
3613;SDS011;1821;50.936;6.854;2022-09-21T00:26:16;6.50;;;3.55;;
3613;SDS011;1821;50.936;6.854;2022-09-21T00:27:00;6.57;;;3.40;;
3613;SDS011;1821;50.936;6.854;2022-09-21T00:27:42;6.07;;;3.70;;
3613;SDS011;1821;50.936;6.854;2022-09-21T00:28:23;7.32;;;4.05;;
3613;SDS011;1821;50.936;6.854;2022-09-21T00:29:05;6.30;;;3.78;;
3613;SDS011;1821;50.936;6.854;2022-09-21T00:29:47;4.70;;;3.40;;
3613;SDS011;1821;50.936;6.854;2022-09-21T00:30:28;5.95;;;3.80;;
3613;SDS011;1821;50.936;6.854;2022-09-21T00:31:11;6.22;;;3.10;;
3613;SDS011;1821;50.936;6.854;2022-09-21T00:31:55;5.75;;;3.30;;
3613;SDS011;1821;50.936;6.854;2022-09-21T00:32:37;7.05;;;4.10;;
3613;SDS011;1821;50.936;6.854;2022-09-21T00:33:19;6.72;;;3.72;;
3613;SDS011;1821;50.936;6.854;2022-09-21T00:34:01;6.50;;;3.53;;
3613;SDS011;1821;50.936;6.854;2022-09-21T00:34:43;5.10;;;3.33;;
3613;SDS011;1821;50.936;6.854;2022-09-21T00:35:25;5.05;;;3.30;;
3613;SDS011;1821;50.936;6.854;2022-09-21T00:36:08;5.18;;;3.15;;
3613;SDS011;1821;50.936;6.854;2022-09-21T00:36:52;7.90;;;3.50;;
3613;SDS011;1821;50.936;6.854;2022-09-21T00:37:33;6.85;;;3.80;;
3613;SDS011;1821;50.936;6.854;2022-09-21T00:38:15;8.18;;;4.00;;
3613;SDS011;1821;50.936;6.854;2022-09-21T00:38:58;6.30;;;3.88;;
3613;SDS011;1821;50.936;6.854;2022-09-21T00:39:41;6.00;;;3.65;;
3613;SDS011;1821;50.936;6.854;2022-09-21T00:40:23;7.75;;;3.83;;
3613;SDS011;1821;50.936;6.854;2022-09-21T00:41:06;6.82;;;3.72;;
3613;SDS011;1821;50.936;6.854;2022-09-21T00:41:48;5.85;;;3.40;;
3613;SDS011;1821;50.936;6.854;2022-09-21T00:42:33;7.20;;;3.30;;
3613;SDS011;1821;50.936;6.854;2022-09-21T00:43:15;7.00;;;3.63;;
3613;SDS011;1821;50.936;6.854;2022-09-21T00:45:06;6.70;;;3.53;;
3613;SDS011;1821;50.936;6.854;2022-09-21T00:46:04;6.45;;;4.13;;
3613;SDS011;1821;50.936;6.854;2022-09-21T00:46:55;7.53;;;3.70;;
3613;SDS011;1821;50.936;6.854;2022-09-21T00:47:41;8.00;;;3.50;;
3613;SDS011;1821;50.936;6.854;2022-09-21T00:48:25;6.60;;;3.58;;
3613;SDS011;1821;50.936;6.854;2022-09-21T00:49:08;7.85;;;3.63;;
3613;SDS011;1821;50.936;6.854;2022-09-21T00:49:50;6.47;;;4.00;;
3613;SDS011;1821;50.936;6.854;2022-09-21T00:50:35;4.60;;;3.10;;
3613;SDS011;1821;50.936;6.854;2022-09-21T00:51:24;5.05;;;3.33;;
3613;SDS011;1821;50.936;6.854;2022-09-21T00:52:06;6.50;;;3.60;;
3613;SDS011;1821;50.936;6.854;2022-09-21T00:52:50;6.30;;;3.30;;
3613;SDS011;1821;50.936;6.854;2022-09-21T00:53:35;4.97;;;2.90;;
3613;SDS011;1821;50.936;6.854;2022-09-21T00:54:20;4.80;;;3.55;;
3613;SDS011;1821;50.936;6.854;2022-09-21T00:55:11;6.55;;;3.40;;
3613;SDS011;1821;50.936;6.854;2022-09-21T00:56:11;5.68;;;3.50;;
3613;SDS011;1821;50.936;6.854;2022-09-21T00:56:54;6.68;;;3.22;;
3613;SDS011;1821;50.936;6.854;2022-09-21T00:57:39;4.95;;;3.30;;
3613;SDS011;1821;50.936;6.854;2022-09-21T00:58:27;6.10;;;3.25;;
3613;SDS011;1821;50.936;6.854;2022-09-21T00:59:13;4.75;;;3.30;;
3613;SDS011;1821;50.936;6.854;2022-09-21T01:00:03;5.18;;;3.63;;
3613;SDS011;1821;50.936;6.854;2022-09-21T01:00:48;5.18;;;3.40;;
3613;SDS011;1821;50.936;6.854;2022-09-21T01:01:30;4.95;;;3.47;;
3613;SDS011;1821;50.936;6.854;2022-09-21T01:02:12;4.72;;;3.17;;
3613;SDS011;1821;50.936;6.854;2022-09-21T01:02:55;4.82;;;3.40;;
3613;SDS011;1821;50.936;6.854;2022-09-21T01:03:41;6.75;;;3.90;;
3613;SDS011;1821;50.936;6.854;2022-09-21T01:04:26;6.30;;;3.80;;
3613;SDS011;1821;50.936;6.854;2022-09-21T01:05:09;6.82;;;4.28;;
3613;SDS011;1821;50.936;6.854;2022-09-21T01:05:51;6.40;;;3.38;;
3613;SDS011;1821;50.936;6.854;2022-09-21T01:06:33;6.80;;;3.60;;
3613;SDS011;1821;50.936;6.854;2022-09-21T01:07:19;6.53;;;3.70;;
3613;SDS011;1821;50.936;6.854;2022-09-21T01:08:08;5.70;;;3.90;;
3613;SDS011;1821;50.936;6.854;2022-09-21T01:08:54;5.47;;;3.58;;
3613;SDS011;1821;50.936;6.854;2022-09-21T01:09:39;6.03;;;3.30;;
3613;SDS011;1821;50.936;6.854;2022-09-21T01:10:24;7.10;;;3.75;;
3613;SDS011;1821;50.936;6.854;2022-09-21T01:11:14;8.38;;;3.90;;
3613;SDS011;1821;50.936;6.854;2022-09-21T01:15:22;5.75;;;3.45;;
3613;SDS011;1821;50.936;6.854;2022-09-21T01:16:14;4.15;;;3.20;;
3613;SDS011;1821;50.936;6.854;2022-09-21T01:18:10;6.65;;;2.85;;
3613;SDS011;1821;50.936;6.854;2022-09-21T01:19:01;7.13;;;3.70;;
3613;SDS011;1821;50.936;6.854;2022-09-21T01:30:08;5.97;;;3.60;;
3613;SDS011;1821;50.936;6.854;2022-09-21T01:30:53;6.78;;;3.50;;
3613;SDS011;1821;50.936;6.854;2022-09-21T01:31:40;6.63;;;3.70;;
3613;SDS011;1821;50.936;6.854;2022-09-21T01:32:38;7.97;;;4.20;;
3613;SDS011;1821;50.936;6.854;2022-09-21T01:33:28;4.93;;;3.40;;
3613;SDS011;1821;50.936;6.854;2022-09-21T01:34:17;6.15;;;3.40;;
3613;SDS011;1821;50.936;6.854;2022-09-21T01:35:26;6.82;;;3.58;;
3613;SDS011;1821;50.936;6.854;2022-09-21T01:36:12;6.60;;;3.40;;
3613;SDS011;1821;50.936;6.854;2022-09-21T01:37:00;6.45;;;3.20;;
3613;SDS011;1821;50.936;6.854;2022-09-21T01:37:58;6.20;;;4.18;;
3613;SDS011;1821;50.936;6.854;2022-09-21T01:38:45;8.75;;;3.72;;
3613;SDS011;1821;50.936;6.854;2022-09-21T01:39:32;8.57;;;3.97;;
3613;SDS011;1821;50.936;6.854;2022-09-21T01:40:20;5.47;;;3.50;;
3613;SDS011;1821;50.936;6.854;2022-09-21T01:41:15;7.38;;;3.45;;
3613;SDS011;1821;50.936;6.854;2022-09-21T01:42:00;8.30;;;3.60;;
3613;SDS011;1821;50.936;6.854;2022-09-21T01:42:46;6.88;;;3.42;;
3613;SDS011;1821;50.936;6.854;2022-09-21T01:43:32;6.88;;;3.90;;
3613;SDS011;1821;50.936;6.854;2022-09-21T01:44:18;6.73;;;4.00;;
3613;SDS011;1821;50.936;6.854;2022-09-21T01:45:03;8.43;;;3.78;;
3613;SDS011;1821;50.936;6.854;2022-09-21T01:45:48;8.55;;;3.70;;
3613;SDS011;1821;50.936;6.854;2022-09-21T01:46:32;6.22;;;3.70;;
3613;SDS011;1821;50.936;6.854;2022-09-21T01:47:16;5.70;;;3.30;;
3613;SDS011;1821;50.936;6.854;2022-09-21T01:47:59;5.47;;;3.40;;
3613;SDS011;1821;50.936;6.854;2022-09-21T01:48:45;6.15;;;3.58;;
3613;SDS011;1821;50.936;6.854;2022-09-21T01:49:31;6.95;;;3.58;;
3613;SDS011;1821;50.936;6.854;2022-09-21T01:50:20;8.43;;;4.47;;
3613;SDS011;1821;50.936;6.854;2022-09-21T01:51:03;6.40;;;3.70;;
3613;SDS011;1821;50.936;6.854;2022-09-21T01:51:57;7.40;;;3.50;;
3613;SDS011;1821;50.936;6.854;2022-09-21T01:52:53;8.35;;;3.83;;
3613;SDS011;1821;50.936;6.854;2022-09-21T01:53:42;7.53;;;3.60;;
3613;SDS011;1821;50.936;6.854;2022-09-21T01:54:28;7.10;;;3.65;;
3613;SDS011;1821;50.936;6.854;2022-09-21T01:55:22;8.30;;;3.95;;
3613;SDS011;1821;50.936;6.854;2022-09-21T01:56:15;5.80;;;3.92;;
3613;SDS011;1821;50.936;6.854;2022-09-21T01:57:06;7.70;;;3.35;;
3613;SDS011;1821;50.936;6.854;2022-09-21T01:58:15;6.05;;;3.50;;
3613;SDS011;1821;50.936;6.854;2022-09-21T01:59:57;4.90;;;3.20;;
3613;SDS011;1821;50.936;6.854;2022-09-21T02:00:40;7.03;;;3.20;;
3613;SDS011;1821;50.936;6.854;2022-09-21T02:01:24;8.88;;;3.95;;
3613;SDS011;1821;50.936;6.854;2022-09-21T02:02:13;4.88;;;3.53;;
3613;SDS011;1821;50.936;6.854;2022-09-21T02:03:52;7.20;;;4.15;;
3613;SDS011;1821;50.936;6.854;2022-09-21T02:04:37;8.23;;;4.18;;
3613;SDS011;1821;50.936;6.854;2022-09-21T02:05:20;11.20;;;4.40;;
3613;SDS011;1821;50.936;6.854;2022-09-21T02:06:04;9.65;;;4.10;;
3613;SDS011;1821;50.936;6.854;2022-09-21T02:06:48;7.63;;;3.85;;
3613;SDS011;1821;50.936;6.854;2022-09-21T02:07:31;7.15;;;3.70;;
3613;SDS011;1821;50.936;6.854;2022-09-21T02:08:14;8.13;;;3.60;;
3613;SDS011;1821;50.936;6.854;2022-09-21T02:08:56;6.55;;;3.50;;
3613;SDS011;1821;50.936;6.854;2022-09-21T02:09:38;8.50;;;3.95;;
3613;SDS011;1821;50.936;6.854;2022-09-21T02:10:30;8.90;;;4.55;;
3613;SDS011;1821;50.936;6.854;2022-09-21T02:11:24;7.03;;;3.20;;
3613;SDS011;1821;50.936;6.854;2022-09-21T02:12:06;8.13;;;3.58;;
3613;SDS011;1821;50.936;6.854;2022-09-21T02:12:52;6.55;;;3.78;;
3613;SDS011;1821;50.936;6.854;2022-09-21T02:13:39;8.20;;;4.10;;
3613;SDS011;1821;50.936;6.854;2022-09-21T02:14:25;6.20;;;3.60;;
3613;SDS011;1821;50.936;6.854;2022-09-21T02:15:08;6.90;;;4.10;;
3613;SDS011;1821;50.936;6.854;2022-09-21T02:17:46;8.77;;;4.15;;
3613;SDS011;1821;50.936;6.854;2022-09-21T02:18:51;7.00;;;3.58;;
3613;SDS011;1821;50.936;6.854;2022-09-21T02:20:37;6.00;;;3.40;;
3613;SDS011;1821;50.936;6.854;2022-09-21T02:23:36;7.32;;;3.08;;
3613;SDS011;1821;50.936;6.854;2022-09-21T02:24:35;6.95;;;3.33;;
3613;SDS011;1821;50.936;6.854;2022-09-21T02:25:27;7.05;;;4.00;;
3613;SDS011;1821;50.936;6.854;2022-09-21T02:26:19;5.85;;;3.70;;
3613;SDS011;1821;50.936;6.854;2022-09-21T02:28:23;8.55;;;4.00;;
3613;SDS011;1821;50.936;6.854;2022-09-21T02:29:09;6.55;;;3.55;;
3613;SDS011;1821;50.936;6.854;2022-09-21T02:30:50;6.18;;;3.63;;
3613;SDS011;1821;50.936;6.854;2022-09-21T02:33:58;7.03;;;4.18;;
3613;SDS011;1821;50.936;6.854;2022-09-21T02:34:49;6.07;;;3.80;;
3613;SDS011;1821;50.936;6.854;2022-09-21T02:36:46;6.65;;;4.30;;
3613;SDS011;1821;50.936;6.854;2022-09-21T02:38:43;6.45;;;4.40;;
3613;SDS011;1821;50.936;6.854;2022-09-21T02:39:37;7.97;;;4.20;;
3613;SDS011;1821;50.936;6.854;2022-09-21T02:40:41;10.25;;;4.30;;
3613;SDS011;1821;50.936;6.854;2022-09-21T02:42:07;6.15;;;4.20;;
3613;SDS011;1821;50.936;6.854;2022-09-21T02:42:54;5.90;;;3.70;;
3613;SDS011;1821;50.936;6.854;2022-09-21T02:43:43;6.22;;;3.50;;
3613;SDS011;1821;50.936;6.854;2022-09-21T02:44:31;5.88;;;3.78;;
3613;SDS011;1821;50.936;6.854;2022-09-21T02:45:20;7.30;;;4.05;;
3613;SDS011;1821;50.936;6.854;2022-09-21T02:46:15;7.70;;;4.30;;
3613;SDS011;1821;50.936;6.854;2022-09-21T02:47:08;11.10;;;4.28;;
3613;SDS011;1821;50.936;6.854;2022-09-21T02:49:17;5.68;;;3.90;;
3613;SDS011;1821;50.936;6.854;2022-09-21T02:50:03;5.68;;;3.60;;
3613;SDS011;1821;50.936;6.854;2022-09-21T02:50:51;5.70;;;3.80;;
3613;SDS011;1821;50.936;6.854;2022-09-21T02:51:35;6.18;;;3.90;;
3613;SDS011;1821;50.936;6.854;2022-09-21T02:52:27;9.57;;;4.10;;
3613;SDS011;1821;50.936;6.854;2022-09-21T02:53:11;12.82;;;4.30;;
3613;SDS011;1821;50.936;6.854;2022-09-21T02:54:00;6.43;;;3.83;;
3613;SDS011;1821;50.936;6.854;2022-09-21T02:54:45;9.60;;;3.97;;
3613;SDS011;1821;50.936;6.854;2022-09-21T02:55:30;8.30;;;3.75;;
3613;SDS011;1821;50.936;6.854;2022-09-21T02:56:13;9.00;;;4.10;;
3613;SDS011;1821;50.936;6.854;2022-09-21T02:56:57;8.10;;;3.70;;
3613;SDS011;1821;50.936;6.854;2022-09-21T02:57:40;7.75;;;4.30;;
3613;SDS011;1821;50.936;6.854;2022-09-21T02:58:23;6.68;;;4.07;;
3613;SDS011;1821;50.936;6.854;2022-09-21T02:59:07;8.00;;;4.15;;
3613;SDS011;1821;50.936;6.854;2022-09-21T02:59:50;10.88;;;3.97;;
3613;SDS011;1821;50.936;6.854;2022-09-21T03:00:33;8.40;;;3.53;;
3613;SDS011;1821;50.936;6.854;2022-09-21T03:01:16;7.80;;;3.95;;
3613;SDS011;1821;50.936;6.854;2022-09-21T03:01:58;6.40;;;4.10;;
3613;SDS011;1821;50.936;6.854;2022-09-21T03:02:41;6.22;;;3.97;;
3613;SDS011;1821;50.936;6.854;2022-09-21T03:03:24;8.18;;;4.00;;
3613;SDS011;1821;50.936;6.854;2022-09-21T03:04:06;7.63;;;3.65;;
3613;SDS011;1821;50.936;6.854;2022-09-21T03:04:48;6.07;;;3.42;;
3613;SDS011;1821;50.936;6.854;2022-09-21T03:05:30;7.18;;;3.60;;
3613;SDS011;1821;50.936;6.854;2022-09-21T03:06:12;7.10;;;3.92;;
3613;SDS011;1821;50.936;6.854;2022-09-21T03:06:53;7.55;;;4.30;;
3613;SDS011;1821;50.936;6.854;2022-09-21T03:07:36;7.10;;;4.18;;
3613;SDS011;1821;50.936;6.854;2022-09-21T03:08:19;7.50;;;3.90;;
3613;SDS011;1821;50.936;6.854;2022-09-21T03:09:01;9.45;;;4.53;;
3613;SDS011;1821;50.936;6.854;2022-09-21T03:09:43;6.93;;;4.75;;
3613;SDS011;1821;50.936;6.854;2022-09-21T03:10:25;8.75;;;4.35;;
3613;SDS011;1821;50.936;6.854;2022-09-21T03:11:06;9.77;;;4.43;;
3613;SDS011;1821;50.936;6.854;2022-09-21T03:11:49;6.82;;;4.18;;
3613;SDS011;1821;50.936;6.854;2022-09-21T03:12:31;6.60;;;4.20;;
3613;SDS011;1821;50.936;6.854;2022-09-21T03:13:13;8.38;;;4.28;;
3613;SDS011;1821;50.936;6.854;2022-09-21T03:13:55;8.50;;;4.50;;
3613;SDS011;1821;50.936;6.854;2022-09-21T03:14:37;9.82;;;4.60;;
3613;SDS011;1821;50.936;6.854;2022-09-21T03:15:19;8.60;;;4.35;;
3613;SDS011;1821;50.936;6.854;2022-09-21T03:16:01;6.80;;;4.20;;
3613;SDS011;1821;50.936;6.854;2022-09-21T03:16:45;7.30;;;4.60;;
3613;SDS011;1821;50.936;6.854;2022-09-21T03:17:26;7.30;;;3.80;;
3613;SDS011;1821;50.936;6.854;2022-09-21T03:18:08;9.07;;;4.20;;
3613;SDS011;1821;50.936;6.854;2022-09-21T03:18:51;10.27;;;4.55;;
3613;SDS011;1821;50.936;6.854;2022-09-21T03:19:32;9.00;;;4.30;;
3613;SDS011;1821;50.936;6.854;2022-09-21T03:20:14;9.23;;;4.70;;
3613;SDS011;1821;50.936;6.854;2022-09-21T03:20:56;8.55;;;4.60;;
3613;SDS011;1821;50.936;6.854;2022-09-21T03:21:38;7.15;;;4.15;;
3613;SDS011;1821;50.936;6.854;2022-09-21T03:22:24;9.65;;;4.25;;
3613;SDS011;1821;50.936;6.854;2022-09-21T03:23:06;8.10;;;4.30;;
3613;SDS011;1821;50.936;6.854;2022-09-21T03:23:48;7.15;;;4.40;;
3613;SDS011;1821;50.936;6.854;2022-09-21T03:24:29;8.50;;;4.75;;
3613;SDS011;1821;50.936;6.854;2022-09-21T03:25:27;10.50;;;4.97;;
3613;SDS011;1821;50.936;6.854;2022-09-21T03:26:09;8.88;;;5.05;;
3613;SDS011;1821;50.936;6.854;2022-09-21T03:26:51;9.20;;;4.97;;
3613;SDS011;1821;50.936;6.854;2022-09-21T03:27:33;11.75;;;4.90;;
3613;SDS011;1821;50.936;6.854;2022-09-21T03:28:14;10.77;;;4.50;;
3613;SDS011;1821;50.936;6.854;2022-09-21T03:28:56;10.00;;;5.03;;
3613;SDS011;1821;50.936;6.854;2022-09-21T03:29:38;10.73;;;4.60;;
3613;SDS011;1821;50.936;6.854;2022-09-21T03:30:20;6.60;;;4.00;;
3613;SDS011;1821;50.936;6.854;2022-09-21T03:31:03;8.32;;;4.40;;
3613;SDS011;1821;50.936;6.854;2022-09-21T03:31:46;8.43;;;4.93;;
3613;SDS011;1821;50.936;6.854;2022-09-21T03:32:28;8.13;;;4.60;;
3613;SDS011;1821;50.936;6.854;2022-09-21T03:33:10;6.60;;;4.40;;
3613;SDS011;1821;50.936;6.854;2022-09-21T03:33:53;4.95;;;4.10;;
3613;SDS011;1821;50.936;6.854;2022-09-21T03:34:34;5.60;;;4.07;;
3613;SDS011;1821;50.936;6.854;2022-09-21T03:35:17;5.40;;;3.92;;
3613;SDS011;1821;50.936;6.854;2022-09-21T03:36:03;5.35;;;4.10;;
3613;SDS011;1821;50.936;6.854;2022-09-21T03:36:44;5.80;;;4.13;;
3613;SDS011;1821;50.936;6.854;2022-09-21T03:37:27;6.40;;;4.70;;
3613;SDS011;1821;50.936;6.854;2022-09-21T03:38:11;5.65;;;4.22;;
3613;SDS011;1821;50.936;6.854;2022-09-21T03:38:52;7.85;;;4.50;;
3613;SDS011;1821;50.936;6.854;2022-09-21T03:39:34;8.98;;;4.55;;
3613;SDS011;1821;50.936;6.854;2022-09-21T03:40:16;7.18;;;4.00;;
3613;SDS011;1821;50.936;6.854;2022-09-21T03:40:59;10.38;;;4.35;;
3613;SDS011;1821;50.936;6.854;2022-09-21T03:41:41;8.05;;;4.50;;
3613;SDS011;1821;50.936;6.854;2022-09-21T03:42:22;6.75;;;4.55;;
3613;SDS011;1821;50.936;6.854;2022-09-21T03:43:04;7.15;;;4.22;;
3613;SDS011;1821;50.936;6.854;2022-09-21T03:43:46;7.70;;;4.25;;
3613;SDS011;1821;50.936;6.854;2022-09-21T03:44:27;6.60;;;4.32;;
3613;SDS011;1821;50.936;6.854;2022-09-21T03:45:10;6.32;;;3.85;;
3613;SDS011;1821;50.936;6.854;2022-09-21T03:45:52;7.13;;;4.40;;
3613;SDS011;1821;50.936;6.854;2022-09-21T03:46:34;6.30;;;4.47;;
3613;SDS011;1821;50.936;6.854;2022-09-21T03:47:16;9.25;;;4.32;;
3613;SDS011;1821;50.936;6.854;2022-09-21T03:47:58;11.07;;;4.40;;
3613;SDS011;1821;50.936;6.854;2022-09-21T03:48:41;8.80;;;4.60;;
3613;SDS011;1821;50.936;6.854;2022-09-21T03:49:27;8.27;;;4.97;;
3613;SDS011;1821;50.936;6.854;2022-09-21T03:50:09;7.50;;;4.70;;
3613;SDS011;1821;50.936;6.854;2022-09-21T03:50:52;8.30;;;4.70;;
3613;SDS011;1821;50.936;6.854;2022-09-21T03:51:33;7.38;;;3.97;;
3613;SDS011;1821;50.936;6.854;2022-09-21T03:52:15;9.38;;;4.20;;
3613;SDS011;1821;50.936;6.854;2022-09-21T03:52:57;8.85;;;4.40;;
3613;SDS011;1821;50.936;6.854;2022-09-21T03:53:39;8.65;;;4.55;;
3613;SDS011;1821;50.936;6.854;2022-09-21T03:54:20;7.47;;;4.13;;
3613;SDS011;1821;50.936;6.854;2022-09-21T03:55:03;7.57;;;4.53;;
3613;SDS011;1821;50.936;6.854;2022-09-21T03:55:46;8.27;;;4.60;;
3613;SDS011;1821;50.936;6.854;2022-09-21T03:56:28;8.40;;;4.70;;
3613;SDS011;1821;50.936;6.854;2022-09-21T03:57:09;7.13;;;4.60;;
3613;SDS011;1821;50.936;6.854;2022-09-21T03:57:51;7.60;;;4.72;;
3613;SDS011;1821;50.936;6.854;2022-09-21T03:58:33;10.70;;;4.85;;
3613;SDS011;1821;50.936;6.854;2022-09-21T03:59:15;8.10;;;4.85;;
3613;SDS011;1821;50.936;6.854;2022-09-21T03:59:57;7.70;;;4.90;;
3613;SDS011;1821;50.936;6.854;2022-09-21T04:00:39;7.35;;;4.28;;
3613;SDS011;1821;50.936;6.854;2022-09-21T04:01:20;6.30;;;4.30;;
3613;SDS011;1821;50.936;6.854;2022-09-21T04:02:02;8.50;;;4.45;;
3613;SDS011;1821;50.936;6.854;2022-09-21T04:02:44;7.80;;;4.70;;
3613;SDS011;1821;50.936;6.854;2022-09-21T04:03:26;9.43;;;5.15;;
3613;SDS011;1821;50.936;6.854;2022-09-21T04:04:07;6.82;;;5.50;;
3613;SDS011;1821;50.936;6.854;2022-09-21T04:04:50;6.60;;;4.50;;
3613;SDS011;1821;50.936;6.854;2022-09-21T04:05:31;8.70;;;4.38;;
3613;SDS011;1821;50.936;6.854;2022-09-21T04:06:13;9.73;;;4.90;;
3613;SDS011;1821;50.936;6.854;2022-09-21T04:06:55;7.18;;;5.00;;
3613;SDS011;1821;50.936;6.854;2022-09-21T04:07:38;8.32;;;5.40;;
3613;SDS011;1821;50.936;6.854;2022-09-21T04:08:20;8.33;;;4.67;;
3613;SDS011;1821;50.936;6.854;2022-09-21T04:09:02;7.63;;;4.80;;
3613;SDS011;1821;50.936;6.854;2022-09-21T04:09:44;7.10;;;4.45;;
3613;SDS011;1821;50.936;6.854;2022-09-21T04:10:25;8.25;;;4.35;;
3613;SDS011;1821;50.936;6.854;2022-09-21T04:11:10;7.95;;;4.55;;
3613;SDS011;1821;50.936;6.854;2022-09-21T04:11:52;8.55;;;4.68;;
3613;SDS011;1821;50.936;6.854;2022-09-21T04:12:34;7.07;;;4.85;;
3613;SDS011;1821;50.936;6.854;2022-09-21T04:13:16;10.50;;;4.70;;
3613;SDS011;1821;50.936;6.854;2022-09-21T04:13:58;9.23;;;5.00;;
3613;SDS011;1821;50.936;6.854;2022-09-21T04:14:40;7.40;;;4.88;;
3613;SDS011;1821;50.936;6.854;2022-09-21T04:15:21;9.88;;;5.10;;
3613;SDS011;1821;50.936;6.854;2022-09-21T04:16:03;7.95;;;4.50;;
3613;SDS011;1821;50.936;6.854;2022-09-21T04:16:46;6.25;;;4.65;;
3613;SDS011;1821;50.936;6.854;2022-09-21T04:17:27;9.85;;;5.00;;
3613;SDS011;1821;50.936;6.854;2022-09-21T04:18:09;9.98;;;5.10;;
3613;SDS011;1821;50.936;6.854;2022-09-21T04:18:52;6.38;;;4.68;;
3613;SDS011;1821;50.936;6.854;2022-09-21T04:19:33;8.05;;;4.70;;
3613;SDS011;1821;50.936;6.854;2022-09-21T04:20:15;9.30;;;4.40;;
3613;SDS011;1821;50.936;6.854;2022-09-21T04:20:57;8.75;;;4.70;;
3613;SDS011;1821;50.936;6.854;2022-09-21T04:21:39;8.07;;;5.43;;
3613;SDS011;1821;50.936;6.854;2022-09-21T04:22:20;6.72;;;5.15;;
3613;SDS011;1821;50.936;6.854;2022-09-21T04:23:04;6.80;;;4.70;;
3613;SDS011;1821;50.936;6.854;2022-09-21T04:23:48;10.82;;;5.50;;
3613;SDS011;1821;50.936;6.854;2022-09-21T04:24:30;13.38;;;5.88;;
3613;SDS011;1821;50.936;6.854;2022-09-21T04:25:12;6.72;;;4.90;;
3613;SDS011;1821;50.936;6.854;2022-09-21T04:25:54;6.93;;;4.90;;
3613;SDS011;1821;50.936;6.854;2022-09-21T04:26:37;9.43;;;5.07;;
3613;SDS011;1821;50.936;6.854;2022-09-21T04:27:21;8.48;;;4.68;;
3613;SDS011;1821;50.936;6.854;2022-09-21T04:28:02;6.07;;;4.70;;
3613;SDS011;1821;50.936;6.854;2022-09-21T04:28:44;7.32;;;5.25;;
3613;SDS011;1821;50.936;6.854;2022-09-21T04:29:26;8.68;;;5.70;;
3613;SDS011;1821;50.936;6.854;2022-09-21T04:30:09;9.65;;;5.80;;
3613;SDS011;1821;50.936;6.854;2022-09-21T04:30:52;9.05;;;5.53;;
3613;SDS011;1821;50.936;6.854;2022-09-21T04:31:35;10.60;;;5.60;;
3613;SDS011;1821;50.936;6.854;2022-09-21T04:32:17;8.77;;;5.90;;
3613;SDS011;1821;50.936;6.854;2022-09-21T04:32:59;8.63;;;5.30;;
3613;SDS011;1821;50.936;6.854;2022-09-21T04:33:41;7.90;;;5.30;;
3613;SDS011;1821;50.936;6.854;2022-09-21T04:34:23;5.88;;;5.07;;
3613;SDS011;1821;50.936;6.854;2022-09-21T04:35:04;6.13;;;5.45;;
3613;SDS011;1821;50.936;6.854;2022-09-21T04:35:47;7.28;;;5.60;;
3613;SDS011;1821;50.936;6.854;2022-09-21T04:36:28;7.20;;;5.20;;
3613;SDS011;1821;50.936;6.854;2022-09-21T04:37:16;10.30;;;5.35;;
3613;SDS011;1821;50.936;6.854;2022-09-21T04:37:59;8.05;;;4.70;;
3613;SDS011;1821;50.936;6.854;2022-09-21T04:38:40;8.18;;;5.30;;
3613;SDS011;1821;50.936;6.854;2022-09-21T04:39:22;8.05;;;5.10;;
3613;SDS011;1821;50.936;6.854;2022-09-21T04:40:05;8.05;;;4.90;;
3613;SDS011;1821;50.936;6.854;2022-09-21T04:40:55;8.80;;;4.90;;
3613;SDS011;1821;50.936;6.854;2022-09-21T04:41:37;9.80;;;5.20;;
3613;SDS011;1821;50.936;6.854;2022-09-21T04:42:18;8.02;;;5.47;;
3613;SDS011;1821;50.936;6.854;2022-09-21T04:43:00;8.73;;;5.15;;
3613;SDS011;1821;50.936;6.854;2022-09-21T04:43:42;9.30;;;5.00;;
3613;SDS011;1821;50.936;6.854;2022-09-21T04:44:25;7.63;;;5.50;;
3613;SDS011;1821;50.936;6.854;2022-09-21T04:45:07;9.68;;;5.60;;
3613;SDS011;1821;50.936;6.854;2022-09-21T04:45:50;7.50;;;5.20;;
3613;SDS011;1821;50.936;6.854;2022-09-21T04:46:32;6.70;;;5.90;;
3613;SDS011;1821;50.936;6.854;2022-09-21T04:47:14;8.30;;;5.63;;
3613;SDS011;1821;50.936;6.854;2022-09-21T04:47:56;8.40;;;5.40;;
3613;SDS011;1821;50.936;6.854;2022-09-21T04:48:38;7.20;;;5.50;;
3613;SDS011;1821;50.936;6.854;2022-09-21T04:49:20;8.73;;;5.63;;
3613;SDS011;1821;50.936;6.854;2022-09-21T04:50:01;6.90;;;5.00;;
3613;SDS011;1821;50.936;6.854;2022-09-21T04:50:47;7.55;;;5.40;;
3613;SDS011;1821;50.936;6.854;2022-09-21T04:51:29;7.22;;;5.30;;
3613;SDS011;1821;50.936;6.854;2022-09-21T04:52:11;7.80;;;5.40;;
3613;SDS011;1821;50.936;6.854;2022-09-21T04:52:59;8.30;;;5.50;;
3613;SDS011;1821;50.936;6.854;2022-09-21T04:53:41;9.52;;;5.22;;
3613;SDS011;1821;50.936;6.854;2022-09-21T04:54:24;8.60;;;4.97;;
3613;SDS011;1821;50.936;6.854;2022-09-21T04:55:06;8.40;;;5.60;;
3613;SDS011;1821;50.936;6.854;2022-09-21T04:55:48;9.00;;;5.50;;
3613;SDS011;1821;50.936;6.854;2022-09-21T04:56:30;8.90;;;5.70;;
3613;SDS011;1821;50.936;6.854;2022-09-21T04:57:12;12.20;;;5.78;;
3613;SDS011;1821;50.936;6.854;2022-09-21T04:57:54;9.20;;;5.50;;
3613;SDS011;1821;50.936;6.854;2022-09-21T04:58:36;10.48;;;5.68;;
3613;SDS011;1821;50.936;6.854;2022-09-21T04:59:17;7.45;;;5.40;;
3613;SDS011;1821;50.936;6.854;2022-09-21T04:59:59;6.60;;;5.40;;
3613;SDS011;1821;50.936;6.854;2022-09-21T05:00:41;10.52;;;5.75;;
3613;SDS011;1821;50.936;6.854;2022-09-21T05:01:24;9.20;;;5.70;;
3613;SDS011;1821;50.936;6.854;2022-09-21T05:02:05;9.38;;;5.85;;
3613;SDS011;1821;50.936;6.854;2022-09-21T05:02:47;9.15;;;6.03;;
3613;SDS011;1821;50.936;6.854;2022-09-21T05:03:29;7.32;;;6.10;;
3613;SDS011;1821;50.936;6.854;2022-09-21T05:04:11;9.93;;;6.30;;
3613;SDS011;1821;50.936;6.854;2022-09-21T05:04:53;10.57;;;6.05;;
3613;SDS011;1821;50.936;6.854;2022-09-21T05:05:34;8.93;;;5.63;;
3613;SDS011;1821;50.936;6.854;2022-09-21T05:06:16;8.95;;;5.53;;